createdAt,value
2023-03-12T00:04:36.515Z,51.27
2023-03-12T00:09:39.720Z,51.20
2023-03-12T00:14:41.909Z,51.20
2023-03-12T00:19:45.583Z,50.57
2023-03-12T00:24:52.114Z,50.30
2023-03-12T00:29:54.784Z,50.27
2023-03-12T00:34:57.105Z,49.78
2023-03-12T00:39:59.876Z,49.99
2023-03-12T00:45:02.138Z,50.65
2023-03-12T00:50:04.815Z,50.47
2023-03-12T00:55:07.268Z,50.88
2023-03-12T01:00:13.167Z,50.59
2023-03-12T01:05:16.614Z,51.20
2023-03-12T01:10:21.940Z,51.39
2023-03-12T01:15:25.180Z,51.45
2023-03-12T01:20:27.711Z,50.97
2023-03-12T01:25:29.876Z,51.27
2023-03-12T01:30:32.177Z,51.86
2023-03-12T01:35:39.819Z,52.12
2023-03-12T01:40:43.988Z,52.12
2023-03-12T01:46:16.638Z,51.49
2023-03-12T01:51:20.066Z,50.72
2023-03-12T01:56:22.721Z,50.63
2023-03-12T02:01:25.495Z,50.43
2023-03-12T02:06:53.698Z,49.77
2023-03-12T02:11:56.086Z,49.95
2023-03-12T02:16:58.857Z,50.31
2023-03-12T02:22:02.110Z,50.42
2023-03-12T02:27:06.467Z,50.67
2023-03-12T02:32:10.317Z,50.68
2023-03-12T02:37:12.455Z,50.62
2023-03-12T02:42:15.493Z,50.71
2023-03-12T02:47:18.057Z,50.37
2023-03-12T02:52:20.233Z,50.44
2023-03-12T02:57:22.435Z,49.83
2023-03-12T03:02:24.855Z,49.93
2023-03-12T03:07:26.961Z,49.86
2023-03-12T03:12:29.972Z,49.97
2023-03-12T03:17:32.211Z,49.99
2023-03-12T03:22:34.414Z,49.41
2023-03-12T03:27:36.707Z,49.45
2023-03-12T03:32:39.449Z,48.88
2023-03-12T03:37:41.591Z,47.52
2023-03-12T03:42:43.826Z,45.85
2023-03-12T03:47:46.928Z,44.67
2023-03-12T03:52:49.082Z,44.07
2023-03-12T03:57:51.254Z,43.41
2023-03-12T04:02:53.569Z,43.58
2023-03-12T04:07:56.662Z,43.16
2023-03-12T04:12:59.018Z,42.98
2023-03-12T04:18:01.233Z,43.33
2023-03-12T04:23:03.406Z,43.75
2023-03-12T04:28:06.654Z,44.17
2023-03-12T04:33:09.285Z,44.28
2023-03-12T04:38:11.979Z,43.98
2023-03-12T04:43:14.617Z,44.19
2023-03-12T04:48:16.723Z,44.04
2023-03-12T04:53:19.905Z,44.98
2023-03-12T04:58:22.768Z,44.82
2023-03-12T05:03:25.231Z,45.30
2023-03-12T05:08:27.516Z,45.79
2023-03-12T05:13:29.676Z,46.04
2023-03-12T05:18:31.942Z,45.95
2023-03-12T05:23:35.129Z,45.99
2023-03-12T05:28:37.241Z,45.52
2023-03-12T05:33:39.479Z,46.35
2023-03-12T05:38:43.045Z,46.13
2023-03-12T05:43:46.790Z,47.34
2023-03-12T05:48:49.007Z,46.74
2023-03-12T05:53:51.156Z,46.51
2023-03-12T05:58:53.765Z,46.37
2023-03-12T06:03:56.150Z,46.23
2023-03-12T06:08:58.311Z,46.46
2023-03-12T06:14:00.435Z,45.99
2023-03-12T06:19:04.296Z,45.22
2023-03-12T06:24:07.099Z,45.73
2023-03-12T06:29:09.357Z,43.98
2023-03-12T06:34:11.556Z,42.74
2023-03-12T06:39:13.841Z,41.72
2023-03-12T06:44:16.198Z,43.41
2023-03-12T06:49:19.348Z,43.82
2023-03-12T06:54:21.443Z,42.47
2023-03-12T06:59:25.275Z,40.94
2023-03-12T07:04:27.441Z,42.19
2023-03-12T07:09:29.674Z,42.38
2023-03-12T07:14:31.808Z,42.02
2023-03-12T07:19:34.023Z,40.89
2023-03-12T07:24:36.213Z,40.40
2023-03-12T07:29:38.426Z,40.23
2023-03-12T07:34:40.568Z,39.49
2023-03-12T07:39:44.788Z,39.18
2023-03-12T07:44:47.244Z,37.88
2023-03-12T07:55:11.251Z,35.50
2023-03-12T08:00:14.278Z,34.76
2023-03-12T08:05:16.655Z,33.66
2023-03-12T08:10:20.720Z,30.48
2023-03-12T08:15:23.060Z,29.84
2023-03-12T08:20:25.239Z,29.05
2023-03-12T08:25:27.842Z,28.38
2023-03-12T08:30:31.127Z,28.98
2023-03-12T08:35:33.292Z,27.67
2023-03-12T08:40:35.918Z,27.57
2023-03-12T08:45:38.210Z,27.53
2023-03-12T08:50:40.394Z,27.32
2023-03-12T08:55:42.622Z,27.15
2023-03-12T09:00:44.848Z,27.16
2023-03-12T09:05:46.978Z,27.32
2023-03-12T09:10:50.480Z,27.92
2023-03-12T09:15:52.563Z,28.39
2023-03-12T09:20:54.944Z,29.36
2023-03-12T09:25:57.709Z,29.25
2023-03-12T09:31:02.838Z,28.74
2023-03-12T09:36:05.284Z,29.82
2023-03-12T09:41:27.556Z,30.75
2023-03-12T09:46:47.572Z,31.39
2023-03-12T09:51:55.466Z,31.78
2023-03-12T09:57:03.445Z,31.43
2023-03-12T10:02:25.560Z,31.46
2023-03-12T10:07:42.014Z,31.41
2023-03-12T10:13:05.265Z,31.18
2023-03-12T10:18:38.748Z,31.06
2023-03-12T10:24:03.053Z,31.71
2023-03-12T10:29:16.540Z,31.18
2023-03-12T10:34:33.091Z,30.72
2023-03-12T10:39:35.822Z,31.03
2023-03-12T10:44:37.892Z,30.31
2023-03-12T10:49:40.913Z,30.58
2023-03-12T10:54:45.368Z,30.52
2023-03-12T10:59:49.323Z,30.62
2023-03-12T11:04:53.078Z,30.44
2023-03-12T11:10:26.352Z,30.71
2023-03-12T11:15:38.474Z,30.60
2023-03-12T11:20:41.081Z,31.45
2023-03-12T11:25:44.334Z,33.30
2023-03-12T11:30:47.372Z,35.57
2023-03-12T11:36:10.657Z,37.25
2023-03-12T11:41:47.831Z,36.91
2023-03-12T11:47:21.349Z,38.47
2023-03-12T11:52:41.333Z,36.60
2023-03-12T11:57:59.908Z,37.37
2023-03-12T12:03:16.289Z,37.57
2023-03-12T12:08:36.692Z,36.50
2023-03-12T12:13:53.314Z,37.24
2023-03-12T12:19:40.571Z,36.89
2023-03-12T12:25:14.830Z,35.87
2023-03-12T12:30:41.580Z,35.21
2023-03-12T12:35:44.171Z,35.70
2023-03-12T12:40:55.002Z,35.75
2023-03-12T12:46:02.720Z,36.63
2023-03-12T12:51:08.783Z,37.23
2023-03-12T12:56:33.875Z,37.27
2023-03-12T13:01:38.381Z,36.66
2023-03-12T13:07:19.205Z,36.40
2023-03-12T13:12:50.852Z,36.22
2023-03-12T13:17:53.134Z,36.24
2023-03-12T13:23:07.310Z,35.55
2023-03-12T13:28:33.151Z,35.87
2023-03-12T13:33:48.852Z,36.59
2023-03-12T13:39:01.176Z,36.19
2023-03-12T13:44:38.793Z,36.52
2023-03-12T13:49:53.100Z,36.37
2023-03-12T13:55:07.013Z,36.50
2023-03-12T14:00:30.112Z,36.37
2023-03-12T14:05:36.135Z,36.35
2023-03-12T14:10:54.096Z,36.17
2023-03-12T14:16:14.603Z,36.05
2023-03-12T14:21:18.840Z,36.65
2023-03-12T14:26:40.330Z,36.43
2023-03-12T14:31:50.461Z,36.53
2023-03-12T14:37:10.538Z,36.46
2023-03-12T14:42:26.238Z,36.26
2023-03-12T14:47:28.970Z,36.42
2023-03-12T14:52:31.572Z,36.80
2023-03-12T14:57:34.122Z,36.69
2023-03-12T15:02:38.540Z,37.06
2023-03-12T15:07:43.148Z,37.12
2023-03-12T15:12:46.505Z,36.93
2023-03-12T15:17:50.068Z,36.69
2023-03-12T15:22:53.342Z,35.83
2023-03-12T15:28:22.972Z,34.65
2023-03-12T15:33:26.968Z,33.72
2023-03-12T15:38:33.301Z,33.17
2023-03-12T15:43:38.719Z,31.02
2023-03-12T15:48:42.049Z,29.74
2023-03-12T15:53:44.326Z,28.45
2023-03-12T15:58:46.543Z,27.67
2023-03-12T16:03:49.563Z,27.22
2023-03-12T16:09:03.453Z,27.72
2023-03-12T16:14:13.889Z,29.23
2023-03-12T16:19:19.135Z,30.52
2023-03-12T16:24:21.579Z,31.40
2023-03-12T16:29:31.899Z,32.25
2023-03-12T16:34:33.994Z,33.33
2023-03-12T16:39:36.296Z,34.18
2023-03-12T16:44:38.877Z,34.99
2023-03-12T16:49:41.400Z,35.29
2023-03-12T16:54:43.740Z,35.46
2023-03-12T16:59:46.772Z,35.83
2023-03-12T17:04:49.302Z,36.09
2023-03-12T17:09:52.371Z,35.99
2023-03-12T17:14:55.245Z,36.22
2023-03-12T17:20:01.233Z,36.53
2023-03-12T17:25:04.146Z,37.07
2023-03-12T17:30:09.140Z,36.90
2023-03-12T17:35:11.963Z,37.36
2023-03-12T17:40:15.519Z,37.96
2023-03-12T17:45:19.511Z,38.24
2023-03-12T17:50:22.622Z,39.58
2023-03-12T17:55:24.853Z,39.79
2023-03-12T18:00:26.985Z,40.17
2023-03-12T18:05:29.815Z,39.92
2023-03-12T18:10:34.966Z,39.64
2023-03-12T18:15:38.167Z,39.44
2023-03-12T18:20:41.155Z,39.58
2023-03-12T18:25:44.490Z,39.21
2023-03-12T18:30:48.016Z,39.17
2023-03-12T18:35:53.230Z,40.20
2023-03-12T18:41:19.546Z,41.01
2023-03-12T18:46:25.001Z,42.09
2023-03-12T18:51:27.813Z,41.73
2023-03-12T18:56:30.421Z,43.17
2023-03-12T19:06:52.892Z,43.61
2023-03-12T19:11:55.768Z,42.96
2023-03-12T19:16:58.342Z,43.82
2023-03-12T19:22:02.762Z,43.95
2023-03-12T19:27:04.982Z,44.78
2023-03-12T19:32:08.274Z,44.02
2023-03-12T19:37:10.691Z,43.56
2023-03-12T19:42:14.056Z,43.20
2023-03-12T19:47:18.332Z,43.89
2023-03-12T19:52:21.659Z,43.67
2023-03-12T19:57:24.836Z,43.67
2023-03-12T20:02:27.806Z,44.52
2023-03-12T20:07:30.105Z,43.81
2023-03-12T20:12:33.645Z,44.57
2023-03-12T20:17:36.605Z,44.15
2023-03-12T20:22:38.786Z,43.56
2023-03-12T20:27:41.869Z,42.12
2023-03-12T20:32:44.204Z,39.62
2023-03-12T20:37:46.583Z,38.55
2023-03-12T20:42:48.735Z,37.25
2023-03-12T20:47:51.637Z,36.58
2023-03-12T20:52:55.141Z,36.20
2023-03-12T20:57:57.322Z,35.67
2023-03-12T21:02:59.627Z,34.91
2023-03-12T21:08:02.099Z,33.48
2023-03-12T21:13:08.843Z,33.32
2023-03-12T21:18:11.928Z,33.53
2023-03-12T21:23:16.750Z,33.35
2023-03-12T21:28:19.782Z,32.83
2023-03-12T21:33:22.479Z,32.35
2023-03-12T21:38:25.467Z,32.07
2023-03-12T21:43:29.761Z,31.75
2023-03-12T21:48:32.059Z,31.45
2023-03-12T21:53:34.766Z,30.99
2023-03-12T21:58:37.555Z,30.54
2023-03-12T22:03:42.323Z,29.56
2023-03-12T22:08:48.985Z,29.06
2023-03-12T22:13:52.235Z,29.72
2023-03-12T22:18:54.566Z,29.03
2023-03-12T22:23:58.521Z,29.19
2023-03-12T22:29:02.598Z,28.86
2023-03-12T22:34:04.928Z,28.79
2023-03-12T22:39:07.248Z,28.89
2023-03-12T22:44:09.782Z,29.12
2023-03-12T22:49:12.097Z,28.71
2023-03-12T22:54:14.342Z,28.67
2023-03-12T22:59:16.511Z,28.71
2023-03-12T23:04:18.817Z,29.04
2023-03-12T23:09:21.138Z,28.81
2023-03-12T23:14:23.294Z,29.07
2023-03-12T23:19:25.478Z,29.22
2023-03-12T23:24:30.017Z,28.91
2023-03-12T23:29:33.334Z,28.70
2023-03-12T23:34:35.426Z,29.50
2023-03-12T23:39:53.506Z,29.34
2023-03-12T23:44:56.363Z,29.49
2023-03-12T23:49:59.360Z,28.96
2023-03-12T23:55:01.529Z,29.47
